createdAt,value
2022-10-30T00:00:54.487Z,55.15
2022-10-30T00:03:21.393Z,62.22
2022-10-30T00:05:50.244Z,58.00
2022-10-30T00:08:19.694Z,56.75
2022-10-30T00:10:50.492Z,58.75
2022-10-30T00:13:19.185Z,60.22
2022-10-30T00:15:51.379Z,56.55
2022-10-30T00:18:18.825Z,60.03
2022-10-30T00:20:45.992Z,56.95
2022-10-30T00:23:13.233Z,57.13
2022-10-30T00:25:40.374Z,54.78
2022-10-30T00:28:07.923Z,55.85
2022-10-30T00:30:36.147Z,54.30
2022-10-30T00:33:03.689Z,52.53
2022-10-30T00:35:31.478Z,49.95
2022-10-30T00:38:00.206Z,52.67
2022-10-30T00:40:27.760Z,54.03
2022-10-30T00:42:55.358Z,55.08
2022-10-30T00:45:22.494Z,57.97
2022-10-30T00:47:54.257Z,52.97
2022-10-30T00:50:37.046Z,62.60
2022-10-30T00:53:17.594Z,56.50
2022-10-30T00:55:51.119Z,58.25
2022-10-30T00:58:22.557Z,54.20
2022-10-30T01:00:53.501Z,56.17
2022-10-30T01:03:23.246Z,53.67
2022-10-30T01:05:55.718Z,60.83
2022-10-30T01:08:23.351Z,58.28
2022-10-30T01:10:50.914Z,63.55
2022-10-30T01:13:21.114Z,60.40
2022-10-30T01:16:09.666Z,65.95
2022-10-30T01:18:56.749Z,65.97
2022-10-30T01:21:29.574Z,67.07
2022-10-30T01:24:23.680Z,63.88
2022-10-30T01:27:00.370Z,66.70
2022-10-30T01:29:39.896Z,68.63
2022-10-30T01:32:07.009Z,69.53
2022-10-30T01:34:44.470Z,68.45
2022-10-30T01:37:19.903Z,68.32
2022-10-30T01:39:47.286Z,66.75
2022-10-30T01:42:43.743Z,70.20
2022-10-30T01:45:22.158Z,71.22
2022-10-30T01:48:17.279Z,76.88
2022-10-30T01:51:04.564Z,75.60
2022-10-30T01:53:57.330Z,74.57
2022-10-30T01:56:39.887Z,74.72
2022-10-30T01:59:23.514Z,78.18
2022-10-30T02:01:51.149Z,80.65
2022-10-30T02:04:18.985Z,79.15
2022-10-30T02:06:46.310Z,80.55
2022-10-30T02:09:16.486Z,79.80
2022-10-30T02:11:49.610Z,75.53
2022-10-30T02:14:28.764Z,77.72
2022-10-30T02:16:59.178Z,77.38
2022-10-30T02:19:26.349Z,76.57
2022-10-30T02:21:54.403Z,79.13
2022-10-30T02:24:21.768Z,77.00
2022-10-30T02:26:49.104Z,81.30
2022-10-30T02:29:18.485Z,78.40
2022-10-30T02:31:45.513Z,82.18
2022-10-30T02:34:12.696Z,79.18
2022-10-30T02:36:39.878Z,80.25
2022-10-30T02:39:07.053Z,87.25
2022-10-30T02:41:36.300Z,84.32
2022-10-30T02:44:03.861Z,81.28
2022-10-30T02:46:31.022Z,85.57
2022-10-30T02:48:58.341Z,83.43
2022-10-30T02:51:25.832Z,82.80
2022-10-30T02:53:52.881Z,78.05
2022-10-30T02:56:20.355Z,84.57
2022-10-30T02:58:47.389Z,79.72
2022-10-30T03:01:19.953Z,80.10
2022-10-30T03:03:48.406Z,79.20
2022-10-30T03:06:17.268Z,79.28
2022-10-30T03:08:44.498Z,75.88
2022-10-30T03:11:15.186Z,81.35
2022-10-30T03:13:43.685Z,80.00
2022-10-30T03:16:16.419Z,79.20
2022-10-30T03:18:44.833Z,78.70
2022-10-30T03:21:15.331Z,73.18
2022-10-30T03:23:44.484Z,75.78
2022-10-30T03:26:12.482Z,77.55
2022-10-30T03:28:59.573Z,80.45
2022-10-30T03:31:26.574Z,73.72
2022-10-30T03:34:15.811Z,79.05
2022-10-30T03:36:43.277Z,74.18
2022-10-30T03:39:11.492Z,76.88
2022-10-30T03:41:43.521Z,75.72
2022-10-30T03:44:10.810Z,72.85
2022-10-30T03:46:38.789Z,76.05
2022-10-30T03:49:21.442Z,80.97
2022-10-30T03:51:48.509Z,76.03
2022-10-30T03:54:15.496Z,79.07
2022-10-30T03:56:45.199Z,83.18
2022-10-30T03:59:15.568Z,79.80
2022-10-30T04:01:45.666Z,81.10
2022-10-30T04:04:12.933Z,83.55
2022-10-30T04:06:40.290Z,83.13
2022-10-30T04:09:08.426Z,83.70
2022-10-30T04:11:40.919Z,81.60
2022-10-30T04:14:08.442Z,77.95
2022-10-30T04:16:35.368Z,77.13
2022-10-30T04:19:02.964Z,72.03
2022-10-30T04:21:29.994Z,70.80
2022-10-30T04:23:58.596Z,74.75
2022-10-30T04:26:28.924Z,75.88
2022-10-30T04:28:55.839Z,69.60
2022-10-30T04:31:22.984Z,69.25
2022-10-30T04:33:50.655Z,71.65
2022-10-30T04:36:18.609Z,78.40
2022-10-30T04:38:46.316Z,74.13
2022-10-30T04:41:14.146Z,76.63
2022-10-30T04:43:51.066Z,76.00
2022-10-30T04:46:18.786Z,76.20
2022-10-30T04:48:45.999Z,74.35
2022-10-30T04:51:14.049Z,78.50
2022-10-30T04:53:41.111Z,83.68
2022-10-30T04:56:11.940Z,76.65
2022-10-30T04:58:39.184Z,79.28
2022-10-30T05:01:08.868Z,81.68
2022-10-30T05:03:37.467Z,78.85
2022-10-30T05:06:42.230Z,75.60
2022-10-30T05:09:09.235Z,73.72
2022-10-30T05:11:40.475Z,72.13
2022-10-30T05:14:08.540Z,70.63
2022-10-30T05:16:35.590Z,69.43
2022-10-30T05:19:04.524Z,72.70
2022-10-30T05:21:33.589Z,70.10
2022-10-30T05:24:00.726Z,67.22
2022-10-30T05:26:33.474Z,67.53
2022-10-30T05:29:00.650Z,65.22
2022-10-30T05:31:27.733Z,63.92
2022-10-30T05:33:58.659Z,71.47
2022-10-30T05:36:26.850Z,65.28
2022-10-30T05:38:54.461Z,70.47
2022-10-30T05:41:34.871Z,65.50
2022-10-30T05:44:03.342Z,66.18
2022-10-30T05:46:30.825Z,66.20
2022-10-30T05:49:06.298Z,63.50
2022-10-30T05:51:37.968Z,59.85
2022-10-30T05:54:08.787Z,59.17
2022-10-30T05:56:39.576Z,57.72
2022-10-30T05:59:06.858Z,55.08
2022-10-30T06:01:34.030Z,51.53
2022-10-30T06:04:05.519Z,56.15
2022-10-30T06:06:33.091Z,52.08
2022-10-30T06:09:01.293Z,47.72
2022-10-30T06:11:35.596Z,52.63
2022-10-30T06:14:03.254Z,51.03
2022-10-30T06:16:38.795Z,46.92
2022-10-30T06:19:26.173Z,51.10
2022-10-30T06:21:59.872Z,44.30
2022-10-30T06:24:53.405Z,46.38
2022-10-30T06:27:25.694Z,41.25
2022-10-30T06:29:55.065Z,42.30
2022-10-30T06:32:22.668Z,42.63
2022-10-30T06:34:50.353Z,38.17
2022-10-30T06:37:18.492Z,36.72
2022-10-30T06:39:45.805Z,41.38
2022-10-30T06:42:31.586Z,37.63
2022-10-30T06:45:11.667Z,36.95
2022-10-30T06:47:40.182Z,36.13
2022-10-30T06:50:11.357Z,38.95
2022-10-30T06:52:38.744Z,36.42
2022-10-30T06:55:07.732Z,38.03
2022-10-30T06:57:57.243Z,35.65
2022-10-30T07:00:40.857Z,34.05
2022-10-30T07:03:20.050Z,34.38
2022-10-30T07:05:47.685Z,36.38
2022-10-30T07:08:14.894Z,34.83
2022-10-30T07:10:42.844Z,33.90
2022-10-30T07:13:28.495Z,36.30
2022-10-30T07:16:15.501Z,36.42
2022-10-30T07:18:45.172Z,35.40
2022-10-30T07:21:12.522Z,34.80
2022-10-30T07:23:39.681Z,34.78
2022-10-30T07:26:38.194Z,33.53
2022-10-30T07:29:26.806Z,34.97
2022-10-30T07:32:20.492Z,32.42
2022-10-30T07:34:52.900Z,30.73
2022-10-30T07:37:55.446Z,34.80
2022-10-30T07:40:34.532Z,30.45
2022-10-30T07:43:16.144Z,32.88
2022-10-30T07:46:06.083Z,32.00
2022-10-30T07:48:41.722Z,29.10
2022-10-30T07:51:21.988Z,29.20
2022-10-30T07:53:49.879Z,24.90
2022-10-30T07:56:17.133Z,27.88
2022-10-30T07:58:53.074Z,28.20
2022-10-30T08:01:32.494Z,29.52
2022-10-30T08:04:14.086Z,29.95
2022-10-30T08:06:42.216Z,25.25
2022-10-30T08:09:09.956Z,28.83
2022-10-30T08:11:37.283Z,28.38
2022-10-30T08:14:05.198Z,29.58
2022-10-30T08:16:32.104Z,28.73
2022-10-30T08:18:59.576Z,21.75
2022-10-30T08:21:27.523Z,25.98
2022-10-30T08:24:05.722Z,30.63
2022-10-30T08:26:35.427Z,29.13
2022-10-30T08:29:03.066Z,26.75
2022-10-30T08:31:31.037Z,24.67
2022-10-30T08:34:05.413Z,27.00
2022-10-30T08:36:32.573Z,28.75
2022-10-30T08:38:59.813Z,26.73
2022-10-30T08:41:41.956Z,27.48
2022-10-30T08:44:10.429Z,24.77
2022-10-30T08:47:00.407Z,27.55
2022-10-30T08:49:27.638Z,26.75
2022-10-30T08:51:57.876Z,28.48
2022-10-30T08:54:24.925Z,24.63
2022-10-30T08:56:52.061Z,26.00
2022-10-30T08:59:21.346Z,24.98
2022-10-30T09:01:51.422Z,24.92
2022-10-30T09:04:18.648Z,24.95
2022-10-30T09:07:18.049Z,24.52
2022-10-30T09:10:05.506Z,26.38
2022-10-30T09:12:35.112Z,22.92
2022-10-30T09:15:02.402Z,26.30
2022-10-30T09:17:34.015Z,23.17
2022-10-30T09:20:01.374Z,20.98
2022-10-30T09:22:39.760Z,19.67
2022-10-30T09:25:07.544Z,19.42
2022-10-30T09:27:51.555Z,18.80
2022-10-30T09:30:20.637Z,20.77
2022-10-30T09:32:59.968Z,19.45
2022-10-30T09:35:57.502Z,21.83
2022-10-30T09:38:24.742Z,22.20
2022-10-30T09:41:13.783Z,17.17
2022-10-30T09:44:12.909Z,19.98
2022-10-30T09:47:22.368Z,21.60
2022-10-30T09:50:05.540Z,22.02
2022-10-30T09:52:53.921Z,24.05
2022-10-30T09:55:28.418Z,25.02
2022-10-30T09:58:33.455Z,20.08
2022-10-30T10:01:36.424Z,22.02
2022-10-30T10:04:45.092Z,16.85
2022-10-30T10:07:33.080Z,20.23
2022-10-30T10:10:19.683Z,16.92
2022-10-30T10:13:01.057Z,19.27
2022-10-30T10:15:54.164Z,20.83
2022-10-30T10:18:30.017Z,19.63
2022-10-30T10:21:03.744Z,17.50
2022-10-30T10:23:50.665Z,21.20
2022-10-30T10:26:29.534Z,19.25
2022-10-30T10:29:09.027Z,21.48
2022-10-30T10:32:09.519Z,20.38
2022-10-30T10:35:15.994Z,20.00
2022-10-30T10:37:54.065Z,19.60
2022-10-30T10:40:32.630Z,16.65
2022-10-30T10:43:11.989Z,18.35
2022-10-30T10:45:45.245Z,22.92
2022-10-30T10:48:38.553Z,20.65
2022-10-30T10:51:13.066Z,14.77
2022-10-30T10:53:49.373Z,19.23
2022-10-30T10:56:17.668Z,17.02
2022-10-30T10:59:03.061Z,18.23
2022-10-30T11:01:40.123Z,18.02
2022-10-30T11:04:30.875Z,23.25
2022-10-30T11:07:02.188Z,20.85
2022-10-30T11:09:29.270Z,20.90
2022-10-30T11:11:56.457Z,17.83
2022-10-30T11:14:25.380Z,17.85
2022-10-30T11:17:19.425Z,15.73
2022-10-30T11:19:52.030Z,20.48
2022-10-30T11:22:25.520Z,17.67
2022-10-30T11:24:52.838Z,18.23
2022-10-30T11:27:30.828Z,17.45
2022-10-30T11:29:59.183Z,18.95
2022-10-30T11:32:31.951Z,21.35
2022-10-30T11:35:11.986Z,15.82
2022-10-30T11:37:42.093Z,14.82
2022-10-30T11:40:12.163Z,17.80
2022-10-30T11:42:46.635Z,19.38
2022-10-30T11:45:24.103Z,22.88
2022-10-30T11:47:52.279Z,22.20
2022-10-30T11:50:24.203Z,22.98
2022-10-30T11:52:54.663Z,23.85
2022-10-30T11:55:36.628Z,17.38
2022-10-30T11:58:07.992Z,18.38
2022-10-30T12:00:37.055Z,17.75
2022-10-30T12:03:04.430Z,20.92
2022-10-30T12:05:38.751Z,22.23
2022-10-30T12:08:08.576Z,21.60
2022-10-30T12:10:51.565Z,23.60
2022-10-30T12:13:21.083Z,16.15
2022-10-30T12:15:50.981Z,16.52
2022-10-30T12:18:22.156Z,18.48
2022-10-30T12:20:53.407Z,19.42
2022-10-30T12:23:24.746Z,19.00
2022-10-30T12:25:54.619Z,17.48
2022-10-30T12:28:28.284Z,20.08
2022-10-30T12:30:58.853Z,18.90
2022-10-30T12:34:06.167Z,18.73
2022-10-30T12:36:45.097Z,20.52
2022-10-30T12:39:12.066Z,17.40
2022-10-30T12:42:12.021Z,15.70
2022-10-30T12:44:49.827Z,22.42
2022-10-30T12:47:17.071Z,16.02
2022-10-30T12:49:50.730Z,15.98
2022-10-30T12:52:20.484Z,17.45
2022-10-30T12:54:57.561Z,19.52
2022-10-30T12:57:33.465Z,18.88
2022-10-30T13:00:03.741Z,18.52
2022-10-30T13:02:59.805Z,24.30
2022-10-30T13:05:32.904Z,19.23
2022-10-30T13:08:19.628Z,19.08
2022-10-30T13:10:52.514Z,20.17
2022-10-30T13:13:24.828Z,17.10
2022-10-30T13:15:55.007Z,18.15
2022-10-30T13:18:25.608Z,21.02
2022-10-30T13:21:11.104Z,18.05
2022-10-30T13:23:47.833Z,20.83
2022-10-30T13:26:34.018Z,17.70
2022-10-30T13:29:05.375Z,19.10
2022-10-30T13:31:55.364Z,20.42
2022-10-30T13:34:28.808Z,16.73
2022-10-30T13:37:17.166Z,17.73
2022-10-30T13:40:14.649Z,15.82
2022-10-30T13:42:49.056Z,17.73
2022-10-30T13:45:42.918Z,14.98
2022-10-30T13:48:48.033Z,19.00
2022-10-30T13:51:17.908Z,14.80
2022-10-30T13:53:48.966Z,18.15
2022-10-30T13:56:19.047Z,17.92
2022-10-30T13:59:11.709Z,18.17
2022-10-30T14:01:57.509Z,17.48
2022-10-30T14:04:45.430Z,16.40
2022-10-30T14:07:35.682Z,16.63
2022-10-30T14:10:20.738Z,15.80
2022-10-30T14:12:54.621Z,17.70
2022-10-30T14:15:24.720Z,22.08
2022-10-30T14:18:13.632Z,15.90
2022-10-30T14:20:49.599Z,17.02
2022-10-30T14:23:35.978Z,21.73
2022-10-30T14:26:05.875Z,17.17
2022-10-30T14:28:41.779Z,20.83
2022-10-30T14:31:19.899Z,21.20
2022-10-30T14:33:48.147Z,23.20
2022-10-30T14:36:17.966Z,14.20
2022-10-30T14:39:13.419Z,12.30
2022-10-30T14:42:01.486Z,18.55
2022-10-30T14:44:43.835Z,17.33
2022-10-30T14:47:34.094Z,16.40
2022-10-30T14:50:13.739Z,18.50
2022-10-30T14:53:03.673Z,14.00
2022-10-30T14:55:52.633Z,15.15
2022-10-30T14:58:27.793Z,12.13
2022-10-30T15:01:18.249Z,15.00
2022-10-30T15:04:04.256Z,13.43
2022-10-30T15:06:40.451Z,15.68
2022-10-30T15:09:41.205Z,11.45
2022-10-30T15:12:24.092Z,13.90
2022-10-30T15:15:01.277Z,12.25
2022-10-30T15:17:43.385Z,16.38
2022-10-30T15:20:25.374Z,19.08
2022-10-30T15:23:00.037Z,15.55
2022-10-30T15:25:45.711Z,16.88
2022-10-30T15:31:03.928Z,14.23
2022-10-30T15:33:32.743Z,19.27
2022-10-30T15:36:00.272Z,21.08
2022-10-30T15:38:27.732Z,18.17
2022-10-30T15:41:01.176Z,19.77
2022-10-30T15:43:41.754Z,14.65
2022-10-30T15:46:10.996Z,17.17
2022-10-30T15:48:47.325Z,16.40
2022-10-30T15:51:20.321Z,20.85
2022-10-30T15:53:54.445Z,19.42
2022-10-30T15:57:15.757Z,21.58
2022-10-30T15:59:35.018Z,17.63
2022-10-30T16:02:02.340Z,15.93
2022-10-30T16:04:35.871Z,15.05
2022-10-30T16:07:16.753Z,16.90
2022-10-30T16:10:02.853Z,19.20
2022-10-30T16:12:31.762Z,18.85
2022-10-30T16:15:08.117Z,17.00
2022-10-30T16:17:35.359Z,17.83
2022-10-30T16:20:03.498Z,24.83
2022-10-30T16:22:35.797Z,15.75
2022-10-30T16:25:07.493Z,16.80
2022-10-30T16:27:42.661Z,17.23
2022-10-30T16:30:13.823Z,20.70
2022-10-30T16:32:42.663Z,21.73
2022-10-30T16:35:11.645Z,17.77
2022-10-30T16:37:40.835Z,16.85
2022-10-30T16:40:16.966Z,22.33
2022-10-30T16:43:03.552Z,19.55
2022-10-30T16:45:34.142Z,19.80
2022-10-30T16:48:09.258Z,17.23
2022-10-30T16:50:38.701Z,19.00
2022-10-30T16:53:19.732Z,22.63
2022-10-30T16:55:47.337Z,22.42
2022-10-30T16:58:16.621Z,23.65
2022-10-30T17:00:52.011Z,18.33
2022-10-30T17:03:25.111Z,20.55
2022-10-30T17:06:03.799Z,17.10
2022-10-30T17:08:39.596Z,24.63
2022-10-30T17:11:15.641Z,19.05
2022-10-30T17:13:54.740Z,19.13
2022-10-30T17:16:25.999Z,27.98
2022-10-30T17:18:54.982Z,21.55
2022-10-30T17:21:29.249Z,22.05
2022-10-30T17:23:59.993Z,22.33
2022-10-30T17:26:35.476Z,24.13
2022-10-30T17:29:02.821Z,24.20
2022-10-30T17:31:38.950Z,28.17
2022-10-30T17:34:18.096Z,29.17
2022-10-30T17:36:46.812Z,28.55
2022-10-30T17:39:14.212Z,25.13
2022-10-30T17:41:42.384Z,27.73
2022-10-30T17:44:18.792Z,25.65
2022-10-30T17:46:45.857Z,29.80
2022-10-30T17:49:26.799Z,29.88
2022-10-30T17:51:54.259Z,29.70
2022-10-30T17:54:21.786Z,33.35
2022-10-30T17:56:48.875Z,39.03
2022-10-30T17:59:16.040Z,29.40
2022-10-30T18:01:43.470Z,30.20
2022-10-30T18:04:19.665Z,33.88
2022-10-30T18:06:48.502Z,31.92
2022-10-30T18:09:15.790Z,34.33
2022-10-30T18:11:42.856Z,29.90
2022-10-30T18:14:11.906Z,32.28
2022-10-30T18:16:39.157Z,26.23
2022-10-30T18:19:10.241Z,29.00
2022-10-30T18:21:37.552Z,29.83
2022-10-30T18:24:10.774Z,28.42
2022-10-30T18:26:40.680Z,33.10
2022-10-30T18:29:08.472Z,30.80
2022-10-30T18:31:36.025Z,32.33
2022-10-30T18:34:03.008Z,31.02
2022-10-30T18:36:30.070Z,32.28
2022-10-30T18:38:58.341Z,32.50
2022-10-30T18:41:36.607Z,33.75
2022-10-30T18:44:04.292Z,29.02
2022-10-30T18:46:32.911Z,31.38
2022-10-30T18:49:00.168Z,30.95
2022-10-30T18:51:28.810Z,30.10
2022-10-30T18:53:56.998Z,28.92
2022-10-30T18:56:27.093Z,30.40
2022-10-30T18:58:58.766Z,34.78
2022-10-30T19:01:33.106Z,31.35
2022-10-30T19:04:04.535Z,33.17
2022-10-30T19:06:34.420Z,34.50
2022-10-30T19:09:02.009Z,31.35
2022-10-30T19:11:31.420Z,29.17
2022-10-30T19:13:59.084Z,32.33
2022-10-30T19:16:26.249Z,31.00
2022-10-30T19:18:53.599Z,34.63
2022-10-30T19:21:25.799Z,30.05
2022-10-30T19:23:53.925Z,33.60
2022-10-30T19:26:21.061Z,34.13
2022-10-30T19:28:48.044Z,34.45
2022-10-30T19:31:16.798Z,35.75
2022-10-30T19:33:44.480Z,35.03
2022-10-30T19:36:31.980Z,40.90
2022-10-30T19:39:02.887Z,36.70
2022-10-30T19:41:34.769Z,39.60
2022-10-30T19:44:01.776Z,36.25
2022-10-30T19:46:28.829Z,40.67
2022-10-30T19:48:57.810Z,37.08
2022-10-30T19:51:27.251Z,44.10
2022-10-30T19:53:54.388Z,38.97
2022-10-30T19:56:22.006Z,35.60
2022-10-30T19:58:49.815Z,34.83
2022-10-30T20:01:17.144Z,41.08
2022-10-30T20:03:44.277Z,42.40
2022-10-30T20:06:12.519Z,37.40
2022-10-30T20:08:39.891Z,40.25
2022-10-30T20:11:06.908Z,37.47
2022-10-30T20:13:34.112Z,39.85
2022-10-30T20:16:05.147Z,37.42
2022-10-30T20:18:35.496Z,40.40
2022-10-30T20:21:08.478Z,38.10
2022-10-30T20:23:36.589Z,41.72
2022-10-30T20:26:31.997Z,38.55
2022-10-30T20:29:01.031Z,43.67
2022-10-30T20:31:28.139Z,39.38
2022-10-30T20:33:55.222Z,45.08
2022-10-30T20:36:22.197Z,39.80
2022-10-30T20:38:49.222Z,45.05
2022-10-30T20:41:22.826Z,45.70
2022-10-30T20:43:50.626Z,57.28
2022-10-30T20:46:19.539Z,54.28
2022-10-30T20:48:46.864Z,59.60
2022-10-30T20:51:14.092Z,64.60
2022-10-30T20:53:41.068Z,58.85
2022-10-30T20:56:08.004Z,63.08
2022-10-30T20:58:34.934Z,67.95
2022-10-30T21:01:01.983Z,61.55
2022-10-30T21:03:28.999Z,59.83
2022-10-30T21:05:58.371Z,73.38
2022-10-30T21:08:26.809Z,69.13
2022-10-30T21:10:58.183Z,65.57
2022-10-30T21:13:26.392Z,71.20
2022-10-30T21:15:53.642Z,70.85
2022-10-30T21:18:22.091Z,80.32
2022-10-30T21:20:49.054Z,73.13
2022-10-30T21:23:15.979Z,84.35
2022-10-30T21:25:43.021Z,81.00
2022-10-30T21:28:10.025Z,85.20
2022-10-30T21:30:37.001Z,89.72
2022-10-30T21:33:04.452Z,86.32
2022-10-30T21:35:31.557Z,89.35
2022-10-30T21:37:58.569Z,93.40
2022-10-30T21:40:25.859Z,103.60
2022-10-30T21:42:52.919Z,105.55
2022-10-30T21:45:20.004Z,116.47
2022-10-30T21:47:46.980Z,110.45
2022-10-30T21:50:14.106Z,104.85
2022-10-30T21:52:41.216Z,105.78
2022-10-30T21:55:09.069Z,102.95
2022-10-30T21:57:36.384Z,105.57
2022-10-30T22:00:05.658Z,100.30
2022-10-30T22:02:35.871Z,95.28
2022-10-30T22:05:02.895Z,94.63
2022-10-30T22:07:29.997Z,93.13
2022-10-30T22:09:56.958Z,92.22
2022-10-30T22:12:23.856Z,89.15
2022-10-30T22:14:50.941Z,94.70
2022-10-30T22:17:18.124Z,90.03
2022-10-30T22:19:45.071Z,87.43
2022-10-30T22:22:12.098Z,94.40
2022-10-30T22:24:39.093Z,85.80
2022-10-30T22:27:06.194Z,87.40
2022-10-30T22:29:33.209Z,94.28
2022-10-30T22:32:00.186Z,90.65
2022-10-30T22:34:27.136Z,96.28
2022-10-30T22:36:54.058Z,89.03
2022-10-30T22:39:21.211Z,83.65
2022-10-30T22:41:48.271Z,97.13
2022-10-30T22:44:19.673Z,92.20
2022-10-30T22:46:46.918Z,86.28
2022-10-30T22:49:14.090Z,95.97
2022-10-30T22:51:41.161Z,93.65
2022-10-30T22:54:12.375Z,90.13
2022-10-30T22:56:40.876Z,92.55
2022-10-30T22:59:12.145Z,93.63
2022-10-30T23:01:40.449Z,95.32
2022-10-30T23:04:09.979Z,95.72
2022-10-30T23:06:36.978Z,93.18
2022-10-30T23:09:08.167Z,90.55
2022-10-30T23:11:35.360Z,97.63
2022-10-30T23:14:02.593Z,94.60
2022-10-30T23:16:29.870Z,104.60
2022-10-30T23:18:59.084Z,93.88
2022-10-30T23:21:28.302Z,103.97
2022-10-30T23:23:56.186Z,110.18
2022-10-30T23:26:29.740Z,104.82
2022-10-30T23:28:58.080Z,107.88
2022-10-30T23:31:39.848Z,101.10
